Airfield :
LOGIN :

Register | Disclaimer

   EN    FR    IT 

 










Legend :    VFR   Marginal VFR   IFR   Intensive IFR   Very Intensive IFR
Visi :
Ceiling :
>= 8 km
>= 3000ft
5 to 8 km
1000 to 3000 ft
1500m to 5 km
500 to 1000 ft
800 to 1500m
200 to 500 ft
< 800m
< 200 ft
Symbols :   Thunderstorms  Fog  Heavy snow  Heavy precipitations  Wind > 20 kt
SIGMETs :     Misc.  Thunderstorms  Icing  Turbulence  Mountain Waves  Volcanic Ashes






- Airport Elevation : 187 ft


ETNW - Wunstorf AB

CURRENT METAR :
  • 271720Z 36005KT 8000 -RASN BKN015 OVC030 02/01 Q0997 WHT

EXPIRED METARs :
  • 271644Z 24006KT 6000 -RASN BKN020 OVC040 03/01 Q0997 WHT
  • 271620Z 25006KT 9999 VCSH FEW020TCU SCT030 OVC050 03/01 Q0996 BLU BLU BECMG WHT
  • 271520Z 14006KT 9999 VCSH FEW023TCU SCT040 BKN070 06/00 Q0996 BLU BLU

TAF TAF ETNW
Valid from the 27 at 12:00 until the 28 at 12:00 UTC


271110Z 2712/2812 22010KT 9999 NSW SCT010 BKN030
BECMG 2716/2718 26008KT 7000 -RASN SCT010 BKN020
TEMPO 2718/2804 27012KT 1000 SN BKN003 BKN015
BECMG 2802/2804 27010G20KT 8000 NSW SCT012 SCT030
TEMPO 2804/2807 25008KT 5000 BR FEW005
PROB30 2804/2807 VRB03KT 0500 FZFG VV001 BY ETGL



MET'MAP, your aeronautical weather chart ! - Copyright ORBIFLY December 2007 - Disclaimer

ORBIFLY MET'MAP TEAM :

Programming & Development : Alexandra Zaïnal
Concept & original design : Baudouin d'Aumeries
Assistance for programming : Marc-Olivier Méhu
Technical & hardware support : Manuel Goepfert

Contact : metmap@orbifly.com




SOURCES & CREDITS :

   NOAA